createdAt,value
2023-05-24T00:00:32.434Z,14.4466
2023-05-24T00:01:34.126Z,14.3797
2023-05-24T00:02:35.922Z,14.3542
2023-05-24T00:03:37.833Z,14.3623
2023-05-24T00:04:39.591Z,14.3352
2023-05-24T00:05:41.260Z,14.4233
2023-05-24T00:06:42.905Z,14.3458
2023-05-24T00:07:44.608Z,14.2265
2023-05-24T00:08:46.280Z,14.2208
2023-05-24T00:09:47.962Z,14.2243
2023-05-24T00:10:49.639Z,14.2122
2023-05-24T00:11:51.322Z,14.2059
2023-05-24T00:12:53.003Z,14.2495
2023-05-24T00:13:54.693Z,14.2089
2023-05-24T00:14:56.385Z,14.2977
2023-05-24T00:15:58.065Z,14.3156
2023-05-24T00:16:59.733Z,14.2340
2023-05-24T00:18:01.568Z,14.1269
2023-05-24T00:19:03.265Z,14.1235
2023-05-24T00:20:07.290Z,14.1243
2023-05-24T00:21:05.761Z,14.1131
2023-05-24T00:22:07.467Z,14.1352
2023-05-24T00:23:09.141Z,14.1335
2023-05-24T00:24:10.846Z,14.2264
2023-05-24T00:25:12.538Z,14.3247
2023-05-24T00:26:14.202Z,14.3600
2023-05-24T00:27:15.909Z,14.3615
2023-05-24T00:28:17.569Z,14.3689
2023-05-24T00:29:19.269Z,14.3392
2023-05-24T00:30:20.975Z,14.3684
2023-05-24T00:31:22.704Z,14.3570
2023-05-24T00:32:24.369Z,14.4417
2023-05-24T00:33:26.055Z,14.5162
2023-05-24T00:34:27.732Z,14.4486
2023-05-24T00:35:29.412Z,14.3345
2023-05-24T00:36:31.176Z,14.2097
2023-05-24T00:37:32.811Z,14.1800
2023-05-24T00:38:34.482Z,14.1657
2023-05-24T00:39:36.158Z,14.1308
2023-05-24T00:40:38.879Z,14.1059
2023-05-24T00:41:40.675Z,14.1552
2023-05-24T00:42:42.588Z,14.2179
2023-05-24T00:43:44.513Z,14.2846
2023-05-24T00:44:46.185Z,14.2788
2023-05-24T00:45:47.880Z,14.2061
2023-05-24T00:46:49.526Z,14.2798
2023-05-24T00:47:51.260Z,14.2831
2023-05-24T00:48:52.915Z,14.2020
2023-05-24T00:49:54.596Z,14.1223
2023-05-24T00:50:56.261Z,14.1882
2023-05-24T00:51:57.965Z,14.1340
2023-05-24T00:52:59.659Z,14.0728
2023-05-24T00:54:02.359Z,14.0804
2023-05-24T00:55:04.053Z,14.1803
2023-05-24T00:56:05.727Z,14.2638
2023-05-24T00:57:07.389Z,14.2107
2023-05-24T00:58:09.086Z,14.1522
2023-05-24T00:59:10.763Z,14.1889
2023-05-24T01:00:12.452Z,14.2027
2023-05-24T01:01:14.147Z,14.0334
2023-05-24T01:02:15.841Z,13.9749
2023-05-24T01:03:17.661Z,13.9408
2023-05-24T01:04:19.555Z,13.9979
2023-05-24T01:05:21.477Z,13.8873
2023-05-24T01:06:24.522Z,13.8242
2023-05-24T01:07:26.410Z,13.7200
2023-05-24T01:08:28.328Z,13.5880
2023-05-24T01:09:30.242Z,13.6900
2023-05-24T01:10:32.194Z,13.7489
2023-05-24T01:11:34.087Z,13.7568
2023-05-24T01:12:36.012Z,13.6570
2023-05-24T01:13:37.931Z,13.7333
2023-05-24T01:14:39.863Z,13.8977
2023-05-24T01:15:41.811Z,13.9599
2023-05-24T01:16:43.757Z,13.9265
2023-05-24T01:17:45.709Z,13.8371
2023-05-24T01:18:47.605Z,13.7835
2023-05-24T01:19:49.637Z,13.8933
2023-05-24T01:20:51.612Z,13.9548
2023-05-24T01:21:53.516Z,13.9355
2023-05-24T01:22:55.440Z,13.9000
2023-05-24T01:23:57.138Z,13.8770
2023-05-24T01:24:58.836Z,13.8511
2023-05-24T01:26:00.740Z,13.8297
2023-05-24T01:27:02.658Z,13.7411
2023-05-24T01:28:04.558Z,13.5995
2023-05-24T01:29:06.499Z,13.5341
2023-05-24T01:30:08.209Z,13.6005
2023-05-24T01:31:09.891Z,13.6050
2023-05-24T01:32:11.586Z,13.5793
2023-05-24T01:33:13.259Z,13.6668
2023-05-24T01:34:14.949Z,13.7646
2023-05-24T01:35:16.610Z,13.7255
2023-05-24T01:36:18.290Z,13.6616
2023-05-24T01:37:20.041Z,13.6770
2023-05-24T01:38:21.711Z,13.7688
2023-05-24T01:39:23.426Z,13.7914
2023-05-24T01:40:25.125Z,13.7695
2023-05-24T01:41:26.801Z,13.7702
2023-05-24T01:42:28.718Z,13.7773
2023-05-24T01:43:30.651Z,13.7783
2023-05-24T01:44:32.563Z,13.8077
2023-05-24T01:45:34.499Z,13.7448
2023-05-24T01:46:36.441Z,13.5931
2023-05-24T01:47:38.397Z,13.5285
2023-05-24T01:48:40.288Z,13.6730
2023-05-24T01:49:42.194Z,13.7789
2023-05-24T01:50:44.271Z,13.7922
2023-05-24T01:51:46.240Z,13.7549
2023-05-24T01:52:48.173Z,13.6649
2023-05-24T01:53:50.112Z,13.6554
2023-05-24T01:54:52.021Z,13.7099
2023-05-24T01:55:53.954Z,13.7170
2023-05-24T01:56:55.836Z,13.6944
2023-05-24T01:57:57.765Z,13.6682
2023-05-24T01:58:59.676Z,13.5986
2023-05-24T02:00:01.580Z,13.5789
2023-05-24T02:01:03.555Z,13.5549
2023-05-24T02:02:05.448Z,13.5845
2023-05-24T02:03:07.676Z,13.5827
2023-05-24T02:04:09.631Z,13.6155
2023-05-24T02:05:11.544Z,13.5425
2023-05-24T02:06:13.452Z,13.4100
2023-05-24T02:07:15.364Z,13.2875
2023-05-24T02:08:17.323Z,13.2901
2023-05-24T02:09:19.202Z,13.4113
2023-05-24T02:10:21.121Z,13.4551
2023-05-24T02:11:23.047Z,13.5382
2023-05-24T02:12:25.012Z,13.5290
2023-05-24T02:13:26.960Z,13.5711
2023-05-24T02:14:28.842Z,13.5534
2023-05-24T02:15:30.766Z,13.5487
2023-05-24T02:16:32.633Z,13.6739
2023-05-24T02:17:34.601Z,13.6146
2023-05-24T02:18:36.500Z,13.5513
2023-05-24T02:19:38.417Z,13.6741
2023-05-24T02:20:40.668Z,13.6458
2023-05-24T02:21:42.698Z,13.5274
2023-05-24T02:22:44.625Z,13.4386
2023-05-24T02:23:46.523Z,13.4183
2023-05-24T02:24:48.526Z,13.3328
2023-05-24T02:25:50.472Z,13.2872
2023-05-24T02:26:52.431Z,13.2475
2023-05-24T02:27:54.323Z,13.3342
2023-05-24T02:28:56.257Z,13.3275
2023-05-24T02:29:58.148Z,13.2766
2023-05-24T02:31:00.126Z,13.3275
2023-05-24T02:32:02.054Z,13.4422
2023-05-24T02:33:04.039Z,13.4390
2023-05-24T02:34:05.917Z,13.4364
2023-05-24T02:35:07.830Z,13.3684
2023-05-24T02:36:09.726Z,13.3790
2023-05-24T02:37:11.699Z,13.3644
2023-05-24T02:38:13.627Z,13.3920
2023-05-24T02:39:15.583Z,13.3996
2023-05-24T02:40:17.500Z,13.3689
2023-05-24T02:41:19.424Z,13.3496
2023-05-24T02:42:21.355Z,13.3902
2023-05-24T02:43:23.256Z,13.3566
2023-05-24T02:44:25.155Z,13.2642
2023-05-24T02:45:27.096Z,13.3175
2023-05-24T02:46:29.037Z,13.3596
2023-05-24T02:47:30.929Z,13.3639
2023-05-24T02:48:32.808Z,13.3784
2023-05-24T02:49:34.714Z,13.3466
2023-05-24T02:50:36.644Z,13.3454
2023-05-24T02:51:38.540Z,13.3652
2023-05-24T02:52:40.474Z,13.3244
2023-05-24T02:53:42.388Z,13.2518
2023-05-24T02:54:44.299Z,13.2143
2023-05-24T02:55:46.213Z,13.2450
2023-05-24T02:56:48.124Z,13.1811
2023-05-24T02:57:50.067Z,13.2479
2023-05-24T02:58:51.958Z,13.2973
2023-05-24T02:59:53.862Z,13.2521
2023-05-24T03:00:55.773Z,13.1990
2023-05-24T03:01:57.924Z,13.2571
2023-05-24T03:02:59.950Z,13.2196
2023-05-24T03:04:02.043Z,13.2811
2023-05-24T03:05:03.970Z,13.2305
2023-05-24T03:06:05.901Z,13.1273
2023-05-24T03:07:07.834Z,13.1267
2023-05-24T03:08:09.722Z,13.1455
2023-05-24T03:09:11.656Z,13.2115
2023-05-24T03:10:15.834Z,13.1865
2023-05-24T03:11:14.613Z,13.1874
2023-05-24T03:12:16.529Z,13.2351
2023-05-24T03:13:18.420Z,13.2942
2023-05-24T03:14:20.348Z,13.2645
2023-05-24T03:15:22.263Z,13.2277
2023-05-24T03:16:24.226Z,13.2099
2023-05-24T03:17:26.146Z,13.2164
2023-05-24T03:18:28.034Z,13.2291
2023-05-24T03:19:29.949Z,13.2501
2023-05-24T03:20:31.930Z,13.2669
2023-05-24T03:21:33.819Z,13.2848
2023-05-24T03:22:35.774Z,13.2830
2023-05-24T03:23:37.684Z,13.3435
2023-05-24T03:24:39.586Z,13.3106
2023-05-24T03:25:41.497Z,13.3751
2023-05-24T03:26:43.412Z,13.3959
2023-05-24T03:27:45.343Z,13.3999
2023-05-24T03:28:47.271Z,13.3925
2023-05-24T03:29:49.178Z,13.3648
2023-05-24T03:30:51.087Z,13.3837
2023-05-24T03:31:53.087Z,13.3692
2023-05-24T03:32:55.000Z,13.4220
2023-05-24T03:33:56.870Z,13.3384
2023-05-24T03:34:58.786Z,13.3098
2023-05-24T03:36:00.696Z,13.3349
2023-05-24T03:37:02.605Z,13.3653
2023-05-24T03:38:04.527Z,13.2949
2023-05-24T03:39:06.435Z,13.2529
2023-05-24T03:40:08.346Z,13.2370
2023-05-24T03:41:10.266Z,13.1883
2023-05-24T03:42:12.187Z,13.2345
2023-05-24T03:43:14.105Z,13.1528
2023-05-24T03:44:16.026Z,13.1241
2023-05-24T03:45:26.981Z,13.0877
2023-05-24T03:46:19.198Z,12.9997
2023-05-24T03:47:21.186Z,12.9575
2023-05-24T03:48:24.081Z,12.9825
2023-05-24T03:49:26.015Z,12.9872
2023-05-24T03:50:27.918Z,12.9920
2023-05-24T03:51:29.916Z,13.0603
2023-05-24T03:52:31.759Z,13.0958
2023-05-24T03:53:33.671Z,13.1673
2023-05-24T03:54:35.595Z,13.2456
2023-05-24T03:55:37.514Z,13.2621
2023-05-24T03:56:39.437Z,13.2997
2023-05-24T03:57:41.361Z,13.1853
2023-05-24T03:58:43.332Z,13.2383
2023-05-24T03:59:45.245Z,13.2353
2023-05-24T04:00:47.206Z,13.1573
2023-05-24T04:01:49.227Z,13.1524
2023-05-24T04:02:51.335Z,13.2660
2023-05-24T04:03:53.352Z,13.2838
2023-05-24T04:04:55.312Z,13.2328
2023-05-24T04:05:57.271Z,13.2974
2023-05-24T04:06:59.256Z,13.2820
2023-05-24T04:08:01.268Z,13.1602
2023-05-24T04:09:03.299Z,13.2377
2023-05-24T04:10:05.288Z,13.1516
2023-05-24T04:11:07.221Z,13.1138
2023-05-24T04:12:09.214Z,13.1034
2023-05-24T04:13:11.155Z,13.1306
2023-05-24T04:14:13.133Z,13.2103
2023-05-24T04:15:15.102Z,13.1320
2023-05-24T04:16:17.123Z,13.0740
2023-05-24T04:17:19.176Z,13.1199
2023-05-24T04:18:21.204Z,13.1535
2023-05-24T04:19:23.158Z,13.0783
2023-05-24T04:20:25.187Z,13.1395
2023-05-24T04:21:27.157Z,13.3100
2023-05-24T04:22:29.161Z,13.4508
2023-05-24T04:23:31.164Z,13.4816
2023-05-24T04:24:33.157Z,13.5151
2023-05-24T04:25:35.137Z,13.3391
2023-05-24T04:26:37.105Z,13.3831
2023-05-24T04:27:39.123Z,13.2952
2023-05-24T04:28:41.163Z,13.2789
2023-05-24T04:29:43.110Z,13.3705
2023-05-24T04:30:45.048Z,13.4243
2023-05-24T04:31:47.198Z,13.3355
2023-05-24T04:32:49.286Z,13.2843
2023-05-24T04:33:51.263Z,13.1479
2023-05-24T04:34:53.232Z,13.1268
2023-05-24T04:35:55.296Z,13.1100
2023-05-24T04:36:57.241Z,13.1275
2023-05-24T04:37:59.228Z,13.2168
2023-05-24T04:39:01.207Z,13.3135
2023-05-24T04:40:03.238Z,13.2117
2023-05-24T04:41:05.184Z,13.1596
2023-05-24T04:42:07.150Z,13.1146
2023-05-24T04:43:09.152Z,13.2350
2023-05-24T04:44:11.193Z,13.3332
2023-05-24T04:45:13.282Z,13.3561
2023-05-24T04:46:16.220Z,13.2631
2023-05-24T04:47:18.243Z,13.2088
2023-05-24T04:48:20.210Z,13.3460
2023-05-24T04:49:22.119Z,13.4387
2023-05-24T04:50:23.890Z,13.5502
2023-05-24T04:51:25.654Z,13.5857
2023-05-24T04:52:27.431Z,13.5281
2023-05-24T04:53:29.230Z,13.5460
2023-05-24T04:54:31.279Z,13.4498
2023-05-24T04:55:33.346Z,13.2863
2023-05-24T04:56:35.338Z,13.3999
2023-05-24T04:57:37.311Z,13.4294
2023-05-24T04:58:39.500Z,13.4593
2023-05-24T04:59:41.392Z,13.4494
2023-05-24T05:00:43.560Z,13.3896
2023-05-24T05:01:45.601Z,13.5442
2023-05-24T05:02:47.609Z,13.6453
2023-05-24T05:03:49.573Z,13.6207
2023-05-24T05:04:51.343Z,13.7245
2023-05-24T05:05:53.169Z,13.7885
2023-05-24T05:06:54.906Z,13.6057
2023-05-24T05:07:56.715Z,13.5714
2023-05-24T05:08:58.534Z,13.6276
2023-05-24T05:10:00.638Z,13.5486
2023-05-24T05:11:02.618Z,13.4613
2023-05-24T05:12:04.576Z,13.4174
2023-05-24T05:13:06.524Z,13.5239
2023-05-24T05:14:08.459Z,13.4537
2023-05-24T05:15:10.491Z,13.4311
2023-05-24T05:16:12.500Z,13.4194
2023-05-24T05:17:14.461Z,13.4860
2023-05-24T05:18:16.546Z,13.5370
2023-05-24T05:19:18.517Z,13.5125
2023-05-24T05:20:20.527Z,13.5120
2023-05-24T05:21:22.455Z,13.5795
2023-05-24T05:23:25.823Z,13.5082
2023-05-24T05:24:27.808Z,13.4503
2023-05-24T05:25:29.856Z,13.5375
2023-05-24T05:26:31.857Z,13.5774
2023-05-24T05:27:33.869Z,13.6483
2023-05-24T05:28:35.678Z,13.6235
2023-05-24T05:29:37.408Z,13.5381
2023-05-24T05:30:39.155Z,13.4246
2023-05-24T05:31:41.140Z,13.4164
2023-05-24T05:32:43.321Z,13.3798
2023-05-24T05:33:46.313Z,13.4855
2023-05-24T05:34:48.336Z,13.5680
2023-05-24T05:35:51.753Z,13.4364
2023-05-24T05:36:51.474Z,13.3270
2023-05-24T05:37:53.428Z,13.3830
2023-05-24T05:38:55.453Z,13.4275
2023-05-24T05:39:57.443Z,13.5044
2023-05-24T05:40:59.506Z,13.4100
2023-05-24T05:42:01.474Z,13.2802
2023-05-24T05:43:03.415Z,13.2643
2023-05-24T05:44:05.451Z,13.3107
2023-05-24T05:45:07.469Z,13.2905
2023-05-24T05:46:09.493Z,13.1747
2023-05-24T05:47:11.481Z,13.1531
2023-05-24T05:48:13.396Z,13.2303
2023-05-24T05:49:15.404Z,13.3960
2023-05-24T05:50:17.594Z,13.4751
2023-05-24T05:51:19.647Z,13.3724
2023-05-24T05:52:21.571Z,13.3469
2023-05-24T05:53:23.553Z,13.4208
2023-05-24T05:54:25.513Z,13.3444
2023-05-24T05:55:27.380Z,13.4694
2023-05-24T05:56:29.315Z,13.5099
2023-05-24T05:57:31.269Z,13.4189
2023-05-24T05:58:33.342Z,13.4141
2023-05-24T05:59:35.327Z,13.3680
2023-05-24T06:00:38.116Z,13.3256
2023-05-24T06:01:40.191Z,13.3771
2023-05-24T06:02:42.149Z,13.3869
2023-05-24T06:03:45.458Z,13.4191
2023-05-24T06:04:47.656Z,13.4109
2023-05-24T06:05:49.645Z,13.3509
2023-05-24T06:06:51.687Z,13.4459
2023-05-24T06:07:53.427Z,13.5070
2023-05-24T06:08:55.211Z,13.5716
2023-05-24T06:09:57.003Z,13.6491
2023-05-24T06:10:58.743Z,13.6751
2023-05-24T06:12:00.469Z,13.6578
2023-05-24T06:13:02.288Z,13.6304
2023-05-24T06:14:04.077Z,13.7175
2023-05-24T06:15:05.827Z,13.7880
2023-05-24T06:16:07.668Z,13.8124
2023-05-24T06:17:09.351Z,13.8225
2023-05-24T06:18:11.058Z,13.9328
2023-05-24T06:19:12.843Z,14.0490
2023-05-24T06:20:14.641Z,14.1447
2023-05-24T06:21:16.383Z,14.1893
2023-05-24T06:22:18.167Z,14.1853
2023-05-24T06:23:19.903Z,14.2121
2023-05-24T06:24:21.710Z,14.2098
2023-05-24T06:25:23.509Z,14.1381
2023-05-24T06:26:25.313Z,13.9591
2023-05-24T06:27:27.044Z,13.8553
2023-05-24T06:28:28.778Z,13.9278
2023-05-24T06:29:30.830Z,13.8428
2023-05-24T06:30:32.626Z,13.8245
2023-05-24T06:31:34.392Z,13.9340
2023-05-24T06:32:36.460Z,14.0417
2023-05-24T06:33:38.383Z,14.1576
2023-05-24T06:34:40.690Z,14.1461
2023-05-24T06:35:42.461Z,14.1127
2023-05-24T06:36:44.255Z,13.9825
2023-05-24T06:37:46.065Z,13.9844
2023-05-24T06:38:47.801Z,14.1316
2023-05-24T06:39:49.595Z,14.2524
2023-05-24T06:40:51.328Z,14.1489
2023-05-24T06:41:53.047Z,14.0992
2023-05-24T06:42:54.760Z,14.0884
2023-05-24T06:43:56.661Z,13.9397
2023-05-24T06:44:58.440Z,13.9565
2023-05-24T06:46:00.165Z,13.8081
2023-05-24T06:47:01.956Z,13.7045
2023-05-24T06:48:03.812Z,13.6517
2023-05-24T06:49:05.619Z,13.6928
2023-05-24T06:50:07.388Z,13.7197
2023-05-24T06:51:09.119Z,13.8236
2023-05-24T06:52:10.907Z,13.7338
2023-05-24T06:53:13.058Z,13.5962
2023-05-24T06:54:15.061Z,13.6475
2023-05-24T06:55:17.015Z,13.6193
2023-05-24T06:56:19.111Z,13.5469
2023-05-24T06:57:21.046Z,13.5940
2023-05-24T06:58:22.776Z,13.7508
2023-05-24T06:59:24.605Z,13.8219
2023-05-24T07:00:26.363Z,13.7157
2023-05-24T07:01:28.083Z,13.6739
2023-05-24T07:02:29.869Z,13.7071
2023-05-24T07:03:31.628Z,13.7056
2023-05-24T07:04:33.427Z,13.7257
2023-05-24T07:05:35.153Z,13.7806
2023-05-24T07:06:36.863Z,13.8088
2023-05-24T07:07:38.643Z,13.8309
2023-05-24T07:08:40.438Z,13.9363
2023-05-24T07:09:42.224Z,14.0594
2023-05-24T07:10:44.179Z,14.1589
2023-05-24T07:11:46.570Z,14.2540
2023-05-24T07:12:48.368Z,14.3214
2023-05-24T07:13:50.101Z,14.3739
2023-05-24T07:14:51.858Z,14.4317
2023-05-24T07:15:53.602Z,14.5230
2023-05-24T07:16:55.539Z,14.5233
2023-05-24T07:17:58.512Z,14.5725
2023-05-24T07:19:01.889Z,14.4845
2023-05-24T07:20:02.726Z,14.5543
2023-05-24T07:21:04.680Z,14.6050
2023-05-24T07:22:06.704Z,14.6992
2023-05-24T07:23:08.638Z,14.6675
2023-05-24T07:24:10.665Z,14.6375
2023-05-24T07:25:12.623Z,14.6607
2023-05-24T07:26:14.660Z,14.6048
2023-05-24T07:27:16.612Z,14.5165
2023-05-24T07:28:18.659Z,14.5094
2023-05-24T07:29:20.428Z,14.4173
2023-05-24T07:30:31.784Z,14.3270
2023-05-24T07:31:23.249Z,14.2050
2023-05-24T07:32:24.996Z,14.1658
2023-05-24T07:33:27.686Z,14.0832
2023-05-24T07:34:29.610Z,14.1055
2023-05-24T07:35:31.344Z,14.1037
2023-05-24T07:36:34.832Z,14.0718
2023-05-24T07:37:33.479Z,14.1395
2023-05-24T07:38:35.260Z,14.1381
2023-05-24T07:39:37.017Z,14.0993
2023-05-24T07:40:39.005Z,13.9430
2023-05-24T07:41:41.012Z,13.9009
2023-05-24T07:42:43.117Z,13.9397
2023-05-24T07:43:45.094Z,13.9257
2023-05-24T07:44:46.818Z,13.8936
2023-05-24T07:45:48.556Z,13.9269
2023-05-24T07:46:50.435Z,13.9841
2023-05-24T07:47:53.308Z,14.0738
2023-05-24T07:48:53.617Z,14.1029
2023-05-24T07:49:55.389Z,14.0685
2023-05-24T07:50:57.149Z,13.9830
2023-05-24T07:51:58.864Z,13.9542
2023-05-24T07:53:00.596Z,13.8739
2023-05-24T07:54:02.374Z,13.9870
2023-05-24T07:55:04.145Z,14.0544
2023-05-24T07:56:05.882Z,14.0286
2023-05-24T07:57:09.453Z,13.9995
2023-05-24T07:58:07.988Z,14.0578
2023-05-24T07:59:09.766Z,14.0241
2023-05-24T08:00:11.506Z,13.9560
2023-05-24T08:01:13.218Z,13.9146
2023-05-24T08:02:15.019Z,13.9613
2023-05-24T08:03:16.817Z,13.9334
2023-05-24T08:04:18.553Z,14.0459
2023-05-24T08:05:20.283Z,14.1612
2023-05-24T08:06:22.238Z,14.1553
2023-05-24T08:07:24.034Z,14.1832
2023-05-24T08:08:25.740Z,14.2235
2023-05-24T08:09:27.450Z,14.1021
2023-05-24T08:10:29.188Z,14.1083
2023-05-24T08:11:30.992Z,14.2419
2023-05-24T08:12:32.731Z,14.2569
2023-05-24T08:13:34.459Z,14.0990
2023-05-24T08:14:36.190Z,14.0698
2023-05-24T08:15:37.948Z,14.1286
2023-05-24T08:16:39.849Z,14.1278
2023-05-24T08:17:41.638Z,14.2238
2023-05-24T08:18:43.419Z,14.2863
2023-05-24T08:19:45.224Z,14.3078
2023-05-24T08:20:47.194Z,14.3536
2023-05-24T08:21:48.892Z,14.3710
2023-05-24T08:22:50.763Z,14.3837
2023-05-24T08:23:52.629Z,14.4395
2023-05-24T08:24:54.365Z,14.2479
2023-05-24T08:25:56.062Z,14.3059
2023-05-24T08:26:57.805Z,14.4141
2023-05-24T08:27:59.561Z,14.4373
2023-05-24T08:29:01.348Z,14.3553
2023-05-24T08:30:03.091Z,14.2968
2023-05-24T08:31:05.134Z,14.2505
2023-05-24T08:32:07.504Z,14.1057
2023-05-24T08:33:09.365Z,14.0567
2023-05-24T08:34:11.119Z,14.0029
2023-05-24T08:35:21.102Z,14.0432
2023-05-24T08:36:14.124Z,14.0045
2023-05-24T08:37:16.400Z,14.0463
2023-05-24T08:38:18.093Z,14.1822
2023-05-24T08:39:19.868Z,14.2879
2023-05-24T08:40:21.597Z,14.2182
2023-05-24T08:41:23.291Z,14.2330
2023-05-24T08:42:25.074Z,14.3441
2023-05-24T08:43:26.826Z,14.4121
2023-05-24T08:44:28.535Z,14.3186
2023-05-24T08:45:30.314Z,14.3305
2023-05-24T08:46:32.105Z,14.2273
2023-05-24T08:47:33.977Z,14.2037
2023-05-24T08:48:35.983Z,14.1326
2023-05-24T08:49:37.823Z,14.1002
2023-05-24T08:50:39.627Z,14.1891
2023-05-24T08:51:41.408Z,14.2658
2023-05-24T08:52:43.139Z,14.2754
2023-05-24T08:53:44.874Z,14.3299
2023-05-24T08:54:46.604Z,14.2126
2023-05-24T08:55:48.479Z,14.0537
2023-05-24T08:56:50.245Z,14.0895
2023-05-24T08:57:51.962Z,14.1689
2023-05-24T08:59:00.432Z,14.2920
2023-05-24T08:59:55.637Z,14.3869
2023-05-24T09:00:57.472Z,14.4303
2023-05-24T09:01:59.175Z,14.2984
2023-05-24T09:03:01.035Z,14.2527
2023-05-24T09:04:03.864Z,14.2685
2023-05-24T09:05:05.628Z,14.2264
2023-05-24T09:06:07.359Z,14.1172
2023-05-24T09:07:09.192Z,13.9840
2023-05-24T09:08:11.261Z,13.9341
2023-05-24T09:09:13.153Z,13.8736
2023-05-24T09:10:15.081Z,13.8208
2023-05-24T09:11:17.035Z,13.7866
2023-05-24T09:12:32.482Z,13.8362
2023-05-24T09:13:20.862Z,13.8206
2023-05-24T09:14:22.814Z,13.8823
2023-05-24T09:15:24.823Z,13.8655
2023-05-24T09:16:26.910Z,13.8447
2023-05-24T09:17:29.705Z,13.8169
2023-05-24T09:18:30.914Z,13.7188
2023-05-24T09:19:32.920Z,13.7201
2023-05-24T09:20:34.927Z,13.7084
2023-05-24T09:21:36.764Z,13.8025
2023-05-24T09:22:40.766Z,13.8236
2023-05-24T09:23:40.042Z,13.7744
2023-05-24T09:24:41.823Z,13.8132
2023-05-24T09:25:43.614Z,13.7321
2023-05-24T09:26:45.666Z,13.7859
2023-05-24T09:27:49.008Z,13.6953
2023-05-24T09:28:47.693Z,13.6913
2023-05-24T09:29:49.633Z,13.6484
2023-05-24T09:30:51.541Z,13.7442
2023-05-24T09:31:53.608Z,13.8231
2023-05-24T09:32:55.589Z,13.8364
2023-05-24T09:33:57.411Z,13.8096
2023-05-24T09:34:59.146Z,13.8190
2023-05-24T09:36:00.851Z,13.8270
2023-05-24T09:37:02.669Z,13.7959
2023-05-24T09:38:04.563Z,13.8877
2023-05-24T09:39:06.312Z,13.9025
2023-05-24T09:40:08.051Z,13.9950
2023-05-24T09:41:09.749Z,13.9471
2023-05-24T09:42:11.604Z,13.8363
2023-05-24T09:43:13.304Z,13.8136
2023-05-24T09:44:15.028Z,13.9925
2023-05-24T09:45:16.778Z,14.0636
2023-05-24T09:46:18.611Z,14.1323
2023-05-24T09:47:21.390Z,14.1522
2023-05-24T09:48:23.234Z,14.2028
2023-05-24T09:49:24.950Z,14.1868
2023-05-24T09:50:26.706Z,14.2227
2023-05-24T09:51:28.499Z,14.2090
2023-05-24T09:52:30.215Z,14.1067
2023-05-24T09:53:31.949Z,14.1452
2023-05-24T09:54:33.839Z,14.2013
2023-05-24T09:55:35.721Z,14.0858
2023-05-24T09:56:37.445Z,13.9676
2023-05-24T09:57:39.139Z,13.9806
2023-05-24T09:58:40.867Z,14.0638
2023-05-24T09:59:42.623Z,14.0939
2023-05-24T10:00:44.605Z,14.2525
2023-05-24T10:01:46.720Z,14.3179
2023-05-24T10:03:49.789Z,14.2663
2023-05-24T10:04:51.614Z,14.2952
2023-05-24T10:05:53.258Z,14.2751
2023-05-24T10:06:55.030Z,14.3461
2023-05-24T10:07:56.804Z,14.4435
2023-05-24T10:08:58.577Z,14.4112
2023-05-24T10:10:00.291Z,14.4048
2023-05-24T10:11:02.014Z,14.4553
2023-05-24T10:12:03.787Z,14.4793
2023-05-24T10:13:05.534Z,14.5026
2023-05-24T10:14:07.285Z,14.5728
2023-05-24T10:15:09.030Z,14.5708
2023-05-24T10:16:10.809Z,14.3975
2023-05-24T10:17:12.750Z,14.4281
2023-05-24T10:18:14.707Z,14.4828
2023-05-24T10:19:17.474Z,14.4427
2023-05-24T10:20:19.278Z,14.3785
2023-05-24T10:21:21.037Z,14.4468
2023-05-24T10:22:22.762Z,14.4224
2023-05-24T10:23:24.573Z,14.4622
2023-05-24T10:24:26.375Z,14.4334
2023-05-24T10:25:28.091Z,14.3689
2023-05-24T10:26:29.825Z,14.3614
2023-05-24T10:27:31.557Z,14.3556
2023-05-24T10:28:33.322Z,14.2838
2023-05-24T10:29:35.080Z,14.3194
2023-05-24T10:30:36.846Z,14.3999
2023-05-24T10:31:38.654Z,14.4260
2023-05-24T10:32:40.488Z,14.4356
2023-05-24T10:33:42.207Z,14.4722
2023-05-24T10:34:43.925Z,14.5368
2023-05-24T10:35:46.689Z,14.5643
2023-05-24T10:36:48.477Z,14.4851
2023-05-24T10:37:50.297Z,14.5331
2023-05-24T10:38:51.996Z,14.5648
2023-05-24T10:39:53.758Z,14.5761
2023-05-24T10:40:55.510Z,14.5900
2023-05-24T10:41:57.232Z,14.6117
2023-05-24T10:42:58.960Z,14.7812
2023-05-24T10:44:09.870Z,14.8930
2023-05-24T10:45:01.715Z,14.8980
2023-05-24T10:46:03.460Z,14.7235
2023-05-24T10:47:05.213Z,14.5804
2023-05-24T10:48:06.987Z,14.6021
2023-05-24T10:50:09.820Z,14.5277
2023-05-24T10:51:11.661Z,14.4448
2023-05-24T10:52:13.474Z,14.5287
2023-05-24T10:53:15.209Z,14.4353
2023-05-24T10:54:16.949Z,14.4639
2023-05-24T10:55:18.631Z,14.4290
2023-05-24T10:56:20.447Z,14.2755
2023-05-24T10:57:22.190Z,14.1626
2023-05-24T10:58:23.886Z,14.1601
2023-05-24T10:59:25.854Z,14.0592
2023-05-24T11:01:28.623Z,13.9712
2023-05-24T11:02:30.362Z,13.8690
2023-05-24T11:03:32.132Z,13.9309
2023-05-24T11:04:33.872Z,13.9942
2023-05-24T11:05:35.630Z,14.0667
2023-05-24T11:07:38.640Z,14.0447
2023-05-24T11:08:40.381Z,14.0086
2023-05-24T11:09:42.104Z,13.8425
2023-05-24T11:10:44.153Z,13.8671
2023-05-24T11:11:46.148Z,13.9011
2023-05-24T11:12:47.870Z,13.9140
2023-05-24T11:13:49.608Z,13.8809
2023-05-24T11:14:51.436Z,13.9025
2023-05-24T11:15:53.169Z,13.9930
2023-05-24T11:16:55.018Z,14.1108
2023-05-24T11:17:56.763Z,14.1404
2023-05-24T11:18:58.462Z,14.2103
2023-05-24T11:20:00.255Z,14.2642
2023-05-24T11:21:02.009Z,14.2000
2023-05-24T11:22:03.764Z,14.0510
2023-05-24T11:23:05.499Z,14.0494
2023-05-24T11:24:07.317Z,14.0405
2023-05-24T11:25:09.104Z,13.9773
2023-05-24T11:26:10.823Z,13.9103
2023-05-24T11:27:12.611Z,13.9573
2023-05-24T11:28:14.407Z,13.9710
2023-05-24T11:29:16.237Z,13.9213
2023-05-24T11:30:17.938Z,13.9827
2023-05-24T11:31:19.749Z,14.0551
2023-05-24T11:32:21.681Z,13.9843
2023-05-24T11:33:23.397Z,14.0055
2023-05-24T11:34:25.143Z,14.0367
2023-05-24T11:35:26.892Z,14.0518
2023-05-24T11:36:28.801Z,13.9332
2023-05-24T11:37:45.592Z,13.8472
2023-05-24T11:38:33.058Z,13.9370
2023-05-24T11:39:36.052Z,13.9621
2023-05-24T11:40:37.979Z,13.9018
2023-05-24T11:41:41.822Z,13.8923
2023-05-24T11:42:40.445Z,14.0452
2023-05-24T11:43:42.388Z,14.1370
2023-05-24T11:44:52.275Z,14.1316
2023-05-24T11:45:47.471Z,14.2510
2023-05-24T11:46:49.196Z,14.2397
2023-05-24T11:47:51.011Z,14.2722
2023-05-24T11:48:52.732Z,14.3663
2023-05-24T11:49:54.453Z,14.3696
2023-05-24T11:50:56.435Z,14.2824
2023-05-24T11:51:58.288Z,14.3227
2023-05-24T11:53:00.052Z,14.4551
2023-05-24T11:54:01.785Z,14.5491
2023-05-24T11:55:03.502Z,14.4820
2023-05-24T11:56:05.339Z,14.3714
2023-05-24T11:57:07.013Z,14.4285
2023-05-24T11:58:08.777Z,14.5009
2023-05-24T11:59:10.466Z,14.4591
2023-05-24T12:00:12.222Z,14.5504
2023-05-24T12:01:13.989Z,14.4941
2023-05-24T12:02:15.953Z,14.4776
2023-05-24T12:03:17.844Z,14.4972
2023-05-24T12:04:19.802Z,14.5561
2023-05-24T12:05:21.541Z,14.4426
2023-05-24T12:06:23.264Z,14.4991
2023-05-24T12:07:24.961Z,14.6230
2023-05-24T12:08:26.712Z,14.7760
2023-05-24T12:09:28.478Z,14.7775
2023-05-24T12:10:30.197Z,14.8363
2023-05-24T12:11:31.957Z,14.9835
2023-05-24T12:12:42.293Z,15.1217
2023-05-24T12:13:34.869Z,15.2787
2023-05-24T12:14:36.625Z,15.3279
2023-05-24T12:15:38.426Z,15.3709
2023-05-24T12:16:40.190Z,15.3748
2023-05-24T12:17:41.980Z,15.2900
2023-05-24T12:18:55.069Z,15.4535
2023-05-24T12:19:44.848Z,15.5916
2023-05-24T12:20:46.865Z,15.7060
2023-05-24T12:21:48.735Z,15.7852
2023-05-24T12:22:50.667Z,15.7576
2023-05-24T12:23:52.657Z,15.7143
2023-05-24T12:24:54.511Z,15.5433
2023-05-24T12:25:56.232Z,15.5854
2023-05-24T12:26:58.170Z,15.6012
2023-05-24T12:27:59.981Z,15.5616
2023-05-24T12:29:01.724Z,15.7064
2023-05-24T12:30:03.428Z,15.8282
2023-05-24T12:31:07.970Z,15.7159
2023-05-24T12:32:06.430Z,15.7254
2023-05-24T12:33:08.205Z,15.7216